createdAt,value
2017-10-11T00:00:25.445Z,0
2017-10-11T00:01:34.284Z,0
2017-10-11T00:02:43.124Z,0
2017-10-11T00:03:51.966Z,0
2017-10-11T00:05:00.804Z,0
2017-10-11T00:06:09.640Z,0
2017-10-11T00:07:18.484Z,0
2017-10-11T00:08:27.322Z,0
2017-10-11T00:09:36.159Z,0
2017-10-11T00:10:44.998Z,0
2017-10-11T00:11:53.840Z,0
2017-10-11T00:13:02.679Z,0
2017-10-11T00:14:11.531Z,0
2017-10-11T00:15:20.371Z,0
2017-10-11T00:16:29.209Z,0
2017-10-11T00:17:38.044Z,0
2017-10-11T00:18:46.887Z,0
2017-10-11T00:19:55.729Z,0
2017-10-11T00:21:04.570Z,0
2017-10-11T00:22:13.406Z,0
2017-10-11T00:23:22.243Z,0
2017-10-11T00:24:31.085Z,0
2017-10-11T00:25:39.922Z,0
2017-10-11T00:26:49.096Z,0
2017-10-11T00:27:57.940Z,0
2017-10-11T00:29:06.774Z,0
2017-10-11T00:30:15.616Z,0
2017-10-11T00:31:24.795Z,0
2017-10-11T00:32:33.633Z,0
2017-10-11T00:33:42.472Z,0
2017-10-11T00:34:51.308Z,0
2017-10-11T00:36:00.146Z,0
2017-10-11T00:37:08.983Z,0
2017-10-11T00:38:17.823Z,0
2017-10-11T00:39:26.663Z,0
2017-10-11T00:40:35.502Z,0
2017-10-11T00:41:44.341Z,0
2017-10-11T00:42:53.182Z,0
2017-10-11T00:44:02.020Z,0
2017-10-11T00:45:10.856Z,0
2017-10-11T00:46:19.696Z,0
2017-10-11T00:47:28.533Z,0
2017-10-11T00:48:37.376Z,0
2017-10-11T00:49:46.218Z,0
2017-10-11T00:50:55.051Z,0
2017-10-11T00:52:03.894Z,0
2017-10-11T00:53:12.733Z,0
2017-10-11T00:54:21.570Z,0
2017-10-11T00:55:30.408Z,0
2017-10-11T00:56:39.250Z,0
2017-10-11T00:57:48.084Z,0
2017-10-11T00:58:56.926Z,0
2017-10-11T01:00:05.762Z,0
2017-10-11T01:01:14.599Z,0
2017-10-11T01:02:23.439Z,0
2017-10-11T01:03:32.280Z,0
2017-10-11T01:04:41.120Z,0
2017-10-11T01:05:49.961Z,0
2017-10-11T01:06:58.801Z,0
2017-10-11T01:08:07.971Z,0
2017-10-11T01:09:16.810Z,0
2017-10-11T01:10:25.646Z,0
2017-10-11T01:11:34.492Z,0
2017-10-11T01:12:43.333Z,0
2017-10-11T01:13:52.173Z,0
2017-10-11T01:15:01.019Z,0
2017-10-11T01:16:09.859Z,0
2017-10-11T01:17:18.697Z,0
2017-10-11T01:18:27.539Z,0
2017-10-11T01:19:36.380Z,0
2017-10-11T01:20:45.213Z,0
2017-10-11T01:21:54.054Z,0
2017-10-11T01:23:02.896Z,0
2017-10-11T01:24:11.733Z,0
2017-10-11T01:25:20.583Z,0
2017-10-11T01:26:29.410Z,0
2017-10-11T01:27:38.251Z,0
2017-10-11T01:28:47.092Z,0
2017-10-11T01:29:55.927Z,0
2017-10-11T01:31:04.768Z,0
2017-10-11T01:32:13.617Z,0
2017-10-11T01:33:22.450Z,0
2017-10-11T01:34:31.286Z,0
2017-10-11T01:35:40.461Z,0
2017-10-11T01:36:49.306Z,0
2017-10-11T01:37:58.482Z,0
2017-10-11T01:39:07.319Z,0
2017-10-11T01:40:16.158Z,0
2017-10-11T01:41:25.003Z,0
2017-10-11T01:42:33.837Z,0
2017-10-11T01:43:42.678Z,0
2017-10-11T01:44:51.539Z,0
2017-10-11T01:46:00.362Z,0
2017-10-11T01:47:09.200Z,0
2017-10-11T01:48:18.034Z,0
2017-10-11T01:49:26.876Z,0
2017-10-11T01:50:36.049Z,0
2017-10-11T01:51:44.896Z,0
2017-10-11T01:52:53.727Z,0
2017-10-11T01:54:02.576Z,0
2017-10-11T01:55:11.739Z,0
2017-10-11T01:56:20.577Z,0
2017-10-11T01:57:29.419Z,0
2017-10-11T01:58:38.263Z,0
2017-10-11T01:59:47.096Z,0
2017-10-11T02:00:55.933Z,0
2017-10-11T02:02:04.773Z,0
2017-10-11T02:03:13.607Z,0
2017-10-11T02:04:22.798Z,0
2017-10-11T02:05:31.629Z,0
2017-10-11T02:06:40.472Z,0
2017-10-11T02:07:49.309Z,0
2017-10-11T02:08:58.148Z,0
2017-10-11T02:10:06.989Z,0
2017-10-11T02:11:15.828Z,0
2017-10-11T02:12:25.006Z,0
2017-10-11T02:13:34.178Z,0
2017-10-11T02:14:43.023Z,0
2017-10-11T02:15:51.859Z,0
2017-10-11T02:17:00.703Z,0
2017-10-11T02:18:09.880Z,0
2017-10-11T02:19:18.717Z,0
2017-10-11T02:20:27.556Z,0
2017-10-11T02:21:36.397Z,0
2017-10-11T02:22:45.238Z,0
2017-10-11T02:23:54.075Z,0
2017-10-11T02:25:02.919Z,0
2017-10-11T02:26:11.759Z,0
2017-10-11T02:27:20.935Z,0
2017-10-11T02:28:29.782Z,0
2017-10-11T02:29:38.617Z,0
2017-10-11T02:30:47.456Z,0
2017-10-11T02:31:56.303Z,0
2017-10-11T02:33:05.134Z,0
2017-10-11T02:34:13.970Z,0
2017-10-11T02:35:22.815Z,0
2017-10-11T02:36:31.658Z,0
2017-10-11T02:37:40.499Z,0
2017-10-11T02:38:49.341Z,0
2017-10-11T02:39:58.175Z,0
2017-10-11T02:41:07.015Z,0
2017-10-11T02:42:15.854Z,0
2017-10-11T02:43:24.692Z,0
2017-10-11T02:44:33.534Z,0
2017-10-11T02:45:42.369Z,0
2017-10-11T02:46:51.209Z,0
2017-10-11T02:48:00.045Z,0
2017-10-11T02:49:08.889Z,0
2017-10-11T02:50:17.734Z,0
2017-10-11T02:51:26.567Z,0
2017-10-11T02:52:35.403Z,0
2017-10-11T02:53:44.247Z,0
2017-10-11T02:54:53.084Z,0
2017-10-11T02:56:01.922Z,0
2017-10-11T02:57:10.762Z,0
2017-10-11T02:58:19.595Z,0
2017-10-11T02:59:28.437Z,0
2017-10-11T03:00:37.270Z,0
2017-10-11T03:01:46.111Z,0
2017-10-11T03:02:54.950Z,0
2017-10-11T03:04:03.804Z,0
2017-10-11T03:05:12.972Z,0
2017-10-11T03:06:21.810Z,0
2017-10-11T03:07:30.988Z,0
2017-10-11T03:08:39.829Z,0
2017-10-11T03:09:48.674Z,0
2017-10-11T03:10:57.510Z,0
2017-10-11T03:12:06.345Z,0
2017-10-11T03:13:15.186Z,0
2017-10-11T03:14:24.026Z,0
2017-10-11T03:15:32.866Z,0
2017-10-11T03:16:41.709Z,0
2017-10-11T03:17:50.547Z,0
2017-10-11T03:18:59.387Z,0
2017-10-11T03:20:08.229Z,0
2017-10-11T03:21:17.074Z,0
2017-10-11T03:22:25.906Z,0
2017-10-11T03:23:34.745Z,0
2017-10-11T03:24:43.587Z,0
2017-10-11T03:25:52.427Z,0
2017-10-11T03:27:01.261Z,0
2017-10-11T03:28:10.098Z,0
2017-10-11T03:29:18.934Z,0
2017-10-11T03:30:27.774Z,0
2017-10-11T03:31:36.612Z,0
2017-10-11T03:32:45.451Z,0
2017-10-11T03:33:54.288Z,0
2017-10-11T03:35:03.460Z,0
2017-10-11T03:36:12.299Z,0
2017-10-11T03:37:21.156Z,0
2017-10-11T03:38:29.982Z,0
2017-10-11T03:39:39.165Z,0
2017-10-11T03:40:48.344Z,0
2017-10-11T03:41:57.186Z,0
2017-10-11T03:43:06.035Z,0
2017-10-11T03:44:14.869Z,0
2017-10-11T03:45:23.702Z,0
2017-10-11T03:46:32.542Z,0
2017-10-11T03:47:41.374Z,0
2017-10-11T03:48:50.205Z,0
2017-10-11T03:49:59.039Z,0
2017-10-11T03:51:07.890Z,0
2017-10-11T03:52:16.705Z,0
2017-10-11T03:53:25.545Z,0
2017-10-11T03:54:34.379Z,0
2017-10-11T03:55:43.211Z,0
2017-10-11T03:56:52.037Z,0
2017-10-11T03:58:00.878Z,0
2017-10-11T03:59:09.708Z,0
2017-10-11T04:00:18.551Z,0
2017-10-11T04:01:27.382Z,0
2017-10-11T04:02:36.220Z,0
2017-10-11T04:03:45.387Z,0
2017-10-11T04:04:54.224Z,0
2017-10-11T04:06:03.057Z,0
2017-10-11T04:07:11.893Z,0
2017-10-11T04:08:20.730Z,0
2017-10-11T04:09:29.562Z,0
2017-10-11T04:10:38.395Z,0
2017-10-11T04:11:47.234Z,0
2017-10-11T04:12:56.066Z,0
2017-10-11T04:14:04.901Z,0
2017-10-11T04:15:13.735Z,0
2017-10-11T04:16:22.569Z,0
2017-10-11T04:17:31.402Z,0
2017-10-11T04:18:40.242Z,0
2017-10-11T04:19:49.073Z,0
2017-10-11T04:20:57.904Z,0
2017-10-11T04:22:06.751Z,0
2017-10-11T04:23:15.571Z,0
2017-10-11T04:24:24.402Z,0
2017-10-11T04:25:33.238Z,0
2017-10-11T04:26:42.073Z,0
2017-10-11T04:27:50.905Z,0
2017-10-11T04:28:59.739Z,0
2017-10-11T04:30:08.578Z,0
2017-10-11T04:31:17.409Z,0
2017-10-11T04:32:26.249Z,0
2017-10-11T04:33:35.082Z,0
2017-10-11T04:34:43.915Z,0
2017-10-11T04:35:52.751Z,0
2017-10-11T04:37:01.582Z,0
2017-10-11T04:38:10.754Z,0
2017-10-11T04:39:19.588Z,0
2017-10-11T04:40:28.428Z,0
2017-10-11T04:41:37.605Z,0
2017-10-11T04:42:46.439Z,0
2017-10-11T04:43:55.268Z,0
2017-10-11T04:45:04.434Z,0
2017-10-11T04:46:13.276Z,0
2017-10-11T04:47:22.111Z,0
2017-10-11T04:48:30.951Z,0
2017-10-11T04:49:40.117Z,0
2017-10-11T04:50:48.951Z,0
2017-10-11T04:51:57.781Z,0
2017-10-11T04:53:06.625Z,0
2017-10-11T04:54:15.456Z,0
2017-10-11T04:55:24.294Z,0
2017-10-11T04:56:33.130Z,0
2017-10-11T04:57:41.967Z,0
2017-10-11T04:58:50.800Z,0
2017-10-11T04:59:59.632Z,0
2017-10-11T05:01:08.459Z,0
2017-10-11T05:02:17.632Z,0
2017-10-11T05:03:26.467Z,0
2017-10-11T05:04:35.301Z,0
2017-10-11T05:05:44.135Z,0
2017-10-11T05:06:52.964Z,0
2017-10-11T05:08:01.801Z,0
2017-10-11T05:09:10.640Z,0
2017-10-11T05:10:19.474Z,0
2017-10-11T05:11:28.303Z,0
2017-10-11T05:12:37.137Z,0
2017-10-11T05:13:45.970Z,0
2017-10-11T05:14:54.798Z,0
2017-10-11T05:16:03.636Z,0
2017-10-11T05:17:12.467Z,0
2017-10-11T05:18:21.300Z,0
2017-10-11T05:19:30.137Z,0
2017-10-11T05:20:38.969Z,0
2017-10-11T05:21:47.808Z,0
2017-10-11T05:22:56.634Z,0
2017-10-11T05:24:05.471Z,0
2017-10-11T05:25:14.356Z,0
2017-10-11T05:26:23.192Z,0
2017-10-11T05:27:32.027Z,0
2017-10-11T05:28:40.857Z,0
2017-10-11T05:29:49.694Z,0
2017-10-11T05:30:58.528Z,0
2017-10-11T05:32:07.365Z,0
2017-10-11T05:33:16.197Z,0
2017-10-11T05:34:25.036Z,0
2017-10-11T05:35:33.869Z,0
2017-10-11T05:36:42.700Z,0
2017-10-11T05:37:51.545Z,0
2017-10-11T05:39:00.368Z,0
2017-10-11T05:40:09.200Z,0
2017-10-11T05:41:18.376Z,0
2017-10-11T05:42:27.206Z,0
2017-10-11T05:43:36.042Z,0
2017-10-11T05:44:44.875Z,0
2017-10-11T05:45:53.711Z,0
2017-10-11T05:47:02.879Z,0
2017-10-11T05:48:11.712Z,0
2017-10-11T05:49:20.544Z,0
2017-10-11T05:50:29.383Z,0
2017-10-11T05:51:38.220Z,0
2017-10-11T05:52:47.056Z,0
2017-10-11T05:53:55.884Z,0
2017-10-11T05:55:04.718Z,0
2017-10-11T05:56:13.548Z,0
2017-10-11T05:57:22.386Z,0
2017-10-11T05:58:31.222Z,0
2017-10-11T05:59:40.061Z,0
2017-10-11T06:00:49.233Z,0
2017-10-11T06:01:58.067Z,0
2017-10-11T06:03:06.905Z,5
2017-10-11T06:04:15.741Z,5
2017-10-11T06:05:24.581Z,5
2017-10-11T06:06:33.411Z,5
2017-10-11T06:07:42.251Z,5
2017-10-11T06:08:51.085Z,5
2017-10-11T06:09:59.921Z,5
2017-10-11T06:11:08.753Z,5
2017-10-11T06:12:17.592Z,0
2017-10-11T06:13:26.422Z,5
2017-10-11T06:14:35.590Z,5
2017-10-11T06:15:44.427Z,5
2017-10-11T06:16:53.265Z,5
2017-10-11T06:18:02.100Z,5
2017-10-11T06:19:10.935Z,5
2017-10-11T06:20:19.803Z,5
2017-10-11T06:21:28.970Z,5
2017-10-11T06:22:37.807Z,10
2017-10-11T06:23:46.641Z,10
2017-10-11T06:24:55.470Z,5
2017-10-11T06:26:04.307Z,5
2017-10-11T06:27:13.139Z,5
2017-10-11T06:28:21.974Z,5
2017-10-11T06:29:30.813Z,5
2017-10-11T06:30:39.646Z,5
2017-10-11T06:31:48.479Z,10
2017-10-11T06:32:57.315Z,10
2017-10-11T06:34:06.484Z,10
2017-10-11T06:35:15.319Z,10
2017-10-11T06:36:24.153Z,10
2017-10-11T06:37:32.986Z,10
2017-10-11T06:38:42.159Z,10
2017-10-11T06:39:50.996Z,15
2017-10-11T06:40:59.830Z,15
2017-10-11T06:42:08.663Z,20
2017-10-11T06:43:17.500Z,20
2017-10-11T06:44:26.331Z,20
2017-10-11T06:45:35.170Z,15
2017-10-11T06:46:44.005Z,5
2017-10-11T06:47:53.174Z,5
2017-10-11T06:49:02.006Z,10
2017-10-11T06:50:10.837Z,10
2017-10-11T06:51:19.682Z,10
2017-10-11T06:52:28.517Z,20
2017-10-11T06:53:37.351Z,25
2017-10-11T06:54:46.185Z,25
2017-10-11T06:55:55.023Z,20
2017-10-11T06:57:03.860Z,25
2017-10-11T06:58:12.694Z,25
2017-10-11T06:59:21.528Z,25
2017-10-11T07:00:30.361Z,25
2017-10-11T07:01:39.198Z,25
2017-10-11T07:02:48.030Z,20
2017-10-11T07:03:56.862Z,20
2017-10-11T07:05:05.694Z,20
2017-10-11T07:06:14.526Z,20
2017-10-11T07:07:23.365Z,20
2017-10-11T07:08:32.199Z,15
2017-10-11T07:09:41.041Z,15
2017-10-11T07:10:49.866Z,15
2017-10-11T07:11:58.699Z,15
2017-10-11T07:13:07.534Z,15
2017-10-11T07:14:16.379Z,15
2017-10-11T07:15:25.216Z,15
2017-10-11T07:16:34.050Z,15
2017-10-11T07:17:42.886Z,10
2017-10-11T07:18:51.723Z,15
2017-10-11T07:20:00.559Z,10
2017-10-11T07:21:09.397Z,15
2017-10-11T07:22:18.228Z,10
2017-10-11T07:23:27.059Z,10
2017-10-11T07:24:35.895Z,10
2017-10-11T07:25:44.729Z,10
2017-10-11T07:26:53.571Z,10
2017-10-11T07:28:02.404Z,10
2017-10-11T07:29:11.237Z,10
2017-10-11T07:30:20.069Z,15
2017-10-11T07:31:28.910Z,15
2017-10-11T07:32:37.739Z,15
2017-10-11T07:33:46.574Z,10
2017-10-11T07:34:55.409Z,15
2017-10-11T07:36:04.240Z,10
2017-10-11T07:37:13.076Z,15
2017-10-11T07:38:21.913Z,15
2017-10-11T07:39:30.749Z,15
2017-10-11T07:40:39.588Z,15
2017-10-11T07:41:48.416Z,15
2017-10-11T07:42:57.253Z,25
2017-10-11T07:44:06.426Z,25
2017-10-11T07:45:15.268Z,25
2017-10-11T07:46:24.102Z,30
2017-10-11T07:47:32.940Z,40
2017-10-11T07:48:42.112Z,40
2017-10-11T07:49:50.941Z,40
2017-10-11T07:50:59.775Z,50
2017-10-11T07:52:08.615Z,45
2017-10-11T07:53:17.446Z,45
2017-10-11T07:54:26.282Z,35
2017-10-11T07:55:35.117Z,40
2017-10-11T07:56:43.952Z,45
2017-10-11T07:57:52.787Z,40
2017-10-11T07:59:01.622Z,35
2017-10-11T08:00:10.793Z,40
2017-10-11T08:01:19.628Z,35
2017-10-11T08:02:28.461Z,30
2017-10-11T08:03:37.297Z,35
2017-10-11T08:04:46.138Z,35
2017-10-11T08:05:54.971Z,35
2017-10-11T08:07:04.143Z,35
2017-10-11T08:08:12.988Z,30
2017-10-11T08:09:21.815Z,25
2017-10-11T08:10:30.650Z,25
2017-10-11T08:11:39.478Z,25
2017-10-11T08:12:48.315Z,25
2017-10-11T08:13:57.154Z,30
2017-10-11T08:15:05.986Z,30
2017-10-11T08:16:14.816Z,30
2017-10-11T08:17:23.650Z,35
2017-10-11T08:18:32.481Z,35
2017-10-11T08:19:41.324Z,35
2017-10-11T08:20:50.155Z,30
2017-10-11T08:21:58.993Z,20
2017-10-11T08:23:07.831Z,25
2017-10-11T08:24:16.662Z,40
2017-10-11T08:25:25.834Z,45
2017-10-11T08:26:35.005Z,35
2017-10-11T08:27:43.844Z,60
2017-10-11T08:28:53.012Z,45
2017-10-11T08:30:01.860Z,40
2017-10-11T08:31:10.697Z,45
2017-10-11T08:32:19.531Z,40
2017-10-11T08:33:28.712Z,60
2017-10-11T08:34:37.551Z,45
2017-10-11T08:35:46.383Z,45
2017-10-11T08:36:55.214Z,45
2017-10-11T08:38:04.057Z,40
2017-10-11T08:39:12.890Z,40
2017-10-11T08:40:21.729Z,50
2017-10-11T08:41:30.563Z,55
2017-10-11T08:42:39.399Z,60
2017-10-11T08:43:48.235Z,55
2017-10-11T08:44:57.077Z,70
2017-10-11T08:46:05.906Z,55
2017-10-11T08:47:14.744Z,90
2017-10-11T08:48:23.575Z,65
2017-10-11T08:49:32.413Z,55
2017-10-11T08:50:41.258Z,65
2017-10-11T08:51:50.086Z,55
2017-10-11T08:52:58.925Z,55
2017-10-11T08:54:07.757Z,55
2017-10-11T08:55:16.596Z,55
2017-10-11T08:56:25.430Z,45
2017-10-11T08:57:34.263Z,40
2017-10-11T08:58:43.097Z,35
2017-10-11T08:59:51.931Z,35
2017-10-11T09:01:00.767Z,35
2017-10-11T09:02:09.606Z,45
2017-10-11T09:03:18.442Z,40
2017-10-11T09:04:27.287Z,30
2017-10-11T09:05:36.458Z,45
2017-10-11T09:06:45.290Z,35
2017-10-11T09:07:54.125Z,45
2017-10-11T09:09:02.963Z,40
2017-10-11T09:10:11.799Z,40
2017-10-11T09:11:20.630Z,40
2017-10-11T09:12:29.808Z,50
2017-10-11T09:13:38.637Z,55
2017-10-11T09:14:47.480Z,35
2017-10-11T09:15:56.308Z,40
2017-10-11T09:17:05.146Z,50
2017-10-11T09:18:13.987Z,45
2017-10-11T09:19:22.816Z,50
2017-10-11T09:20:31.649Z,45
2017-10-11T09:21:40.489Z,45
2017-10-11T09:22:49.325Z,55
2017-10-11T09:23:58.169Z,60
2017-10-11T09:25:06.997Z,45
2017-10-11T09:26:15.838Z,55
2017-10-11T09:27:24.664Z,55
2017-10-11T09:28:33.505Z,60
2017-10-11T09:29:42.336Z,60
2017-10-11T09:30:51.179Z,60
2017-10-11T09:32:00.022Z,45
2017-10-11T09:33:08.855Z,35
2017-10-11T09:34:17.691Z,40
2017-10-11T09:35:26.531Z,55
2017-10-11T09:36:35.362Z,55
2017-10-11T09:37:44.202Z,65
2017-10-11T09:38:53.040Z,65
2017-10-11T09:40:02.210Z,70
2017-10-11T09:41:11.047Z,65
2017-10-11T09:42:19.889Z,50
2017-10-11T09:43:28.724Z,40
2017-10-11T09:44:37.897Z,45
2017-10-11T09:45:46.732Z,50
2017-10-11T09:46:55.566Z,70
2017-10-11T09:48:04.402Z,75
2017-10-11T09:49:13.243Z,60
2017-10-11T09:50:22.081Z,60
2017-10-11T09:51:30.914Z,55
2017-10-11T09:52:39.751Z,60
2017-10-11T09:53:48.921Z,55
2017-10-11T09:54:58.122Z,45
2017-10-11T09:56:06.962Z,60
2017-10-11T09:57:15.804Z,60
2017-10-11T09:58:24.637Z,60
2017-10-11T09:59:33.474Z,70
2017-10-11T10:00:42.307Z,75
2017-10-11T10:01:51.163Z,70
2017-10-11T10:02:59.982Z,75
2017-10-11T10:04:08.821Z,70
2017-10-11T10:05:17.660Z,65
2017-10-11T10:06:26.491Z,60
2017-10-11T10:07:35.328Z,60
2017-10-11T10:08:44.163Z,55
2017-10-11T10:09:53.004Z,55
2017-10-11T10:11:01.837Z,60
2017-10-11T10:12:10.672Z,60
2017-10-11T10:13:19.508Z,55
2017-10-11T10:14:28.345Z,40
2017-10-11T10:15:37.180Z,40
2017-10-11T10:16:46.017Z,40
2017-10-11T10:17:54.855Z,30
2017-10-11T10:19:03.688Z,20
2017-10-11T10:20:12.539Z,20
2017-10-11T10:21:21.370Z,20
2017-10-11T10:22:30.203Z,20
2017-10-11T10:23:39.039Z,15
2017-10-11T10:24:47.874Z,15
2017-10-11T10:25:56.711Z,15
2017-10-11T10:27:05.549Z,15
2017-10-11T10:28:14.386Z,10
2017-10-11T10:29:23.220Z,15
2017-10-11T10:30:32.053Z,15
2017-10-11T10:31:40.894Z,20
2017-10-11T10:32:50.070Z,30
2017-10-11T10:33:58.903Z,40
2017-10-11T10:35:07.741Z,35
2017-10-11T10:36:16.572Z,35
2017-10-11T10:37:25.419Z,40
2017-10-11T10:38:34.594Z,35
2017-10-11T10:39:43.430Z,35
2017-10-11T10:40:52.261Z,30
2017-10-11T10:42:01.099Z,30
2017-10-11T10:43:09.931Z,30
2017-10-11T10:44:18.769Z,25
2017-10-11T10:45:27.606Z,20
2017-10-11T10:46:36.440Z,20
2017-10-11T10:47:45.277Z,25
2017-10-11T10:48:54.118Z,20
2017-10-11T10:50:02.953Z,25
2017-10-11T10:51:11.796Z,30
2017-10-11T10:52:20.620Z,25
2017-10-11T10:53:29.463Z,35
2017-10-11T10:54:38.299Z,35
2017-10-11T10:55:47.471Z,30
2017-10-11T10:56:56.307Z,25
2017-10-11T10:58:05.143Z,20
2017-10-11T10:59:13.977Z,25
2017-10-11T11:00:22.818Z,20
2017-10-11T11:01:31.664Z,20
2017-10-11T11:02:40.490Z,25
2017-10-11T11:03:49.337Z,35
2017-10-11T11:04:58.163Z,30
2017-10-11T11:06:06.998Z,30
2017-10-11T11:07:15.839Z,25
2017-10-11T11:08:24.675Z,30
2017-10-11T11:09:33.507Z,35
2017-10-11T11:10:42.341Z,35
2017-10-11T11:11:51.513Z,30
2017-10-11T11:13:00.351Z,25
2017-10-11T11:14:09.188Z,30
2017-10-11T11:15:18.043Z,30
2017-10-11T11:16:26.861Z,20
2017-10-11T11:17:35.695Z,30
2017-10-11T11:18:44.530Z,30
2017-10-11T11:19:53.363Z,45
2017-10-11T11:21:02.219Z,45
2017-10-11T11:22:11.037Z,45
2017-10-11T11:23:19.869Z,40
2017-10-11T11:24:28.709Z,40
2017-10-11T11:25:37.548Z,40
2017-10-11T11:26:46.378Z,45
2017-10-11T11:27:55.216Z,40
2017-10-11T11:29:04.052Z,50
2017-10-11T11:30:12.888Z,45
2017-10-11T11:31:21.721Z,45
2017-10-11T11:32:30.554Z,40
2017-10-11T11:33:39.392Z,40
2017-10-11T11:34:48.230Z,40
2017-10-11T11:35:57.071Z,35
2017-10-11T11:37:05.898Z,30
2017-10-11T11:38:14.731Z,30
2017-10-11T11:39:23.562Z,25
2017-10-11T11:40:32.401Z,25
2017-10-11T11:41:41.573Z,25
2017-10-11T11:42:50.411Z,30
2017-10-11T11:43:59.247Z,30
2017-10-11T11:45:08.083Z,25
2017-10-11T11:46:16.925Z,35
2017-10-11T11:47:25.756Z,35
2017-10-11T11:48:34.592Z,45
2017-10-11T11:49:43.427Z,45
2017-10-11T11:50:52.267Z,50
2017-10-11T11:52:01.100Z,40
2017-10-11T11:53:09.938Z,45
2017-10-11T11:54:18.779Z,60
2017-10-11T11:55:27.608Z,60
2017-10-11T11:56:36.789Z,55
2017-10-11T11:57:45.618Z,55
2017-10-11T11:58:54.456Z,55
2017-10-11T12:00:03.287Z,60
2017-10-11T12:01:12.126Z,65
2017-10-11T12:02:20.965Z,65
2017-10-11T12:03:29.796Z,60
2017-10-11T12:04:38.631Z,65
2017-10-11T12:05:47.465Z,70
2017-10-11T12:06:56.304Z,70
2017-10-11T12:08:05.139Z,65
2017-10-11T12:09:13.974Z,70
2017-10-11T12:10:22.810Z,70
2017-10-11T12:11:31.643Z,65
2017-10-11T12:12:40.474Z,60
2017-10-11T12:13:49.314Z,60
2017-10-11T12:14:58.155Z,60
2017-10-11T12:16:06.985Z,55
2017-10-11T12:17:15.822Z,50
2017-10-11T12:18:24.658Z,35
2017-10-11T12:19:33.834Z,30
2017-10-11T12:20:42.671Z,30
2017-10-11T12:21:51.855Z,35
2017-10-11T12:23:00.691Z,35
2017-10-11T12:24:09.526Z,30
2017-10-11T12:25:18.362Z,30
2017-10-11T12:26:27.196Z,30
2017-10-11T12:27:36.035Z,30
2017-10-11T12:28:44.868Z,35
2017-10-11T12:29:53.705Z,50
2017-10-11T12:31:02.546Z,60
2017-10-11T12:32:11.711Z,50
2017-10-11T12:33:20.561Z,50
2017-10-11T12:34:29.388Z,55
2017-10-11T12:35:38.232Z,50
2017-10-11T12:36:47.063Z,50
2017-10-11T12:37:56.241Z,50
2017-10-11T12:39:05.088Z,50
2017-10-11T12:40:13.920Z,45
2017-10-11T12:41:22.757Z,50
2017-10-11T12:42:31.928Z,50
2017-10-11T12:43:40.765Z,55
2017-10-11T12:44:49.599Z,55
2017-10-11T12:45:58.441Z,50
2017-10-11T12:47:07.279Z,55
2017-10-11T12:48:16.114Z,55
2017-10-11T12:49:25.278Z,55
2017-10-11T12:50:34.114Z,50
2017-10-11T12:51:42.943Z,50
2017-10-11T12:52:51.780Z,50
2017-10-11T12:54:00.615Z,55
2017-10-11T12:55:09.791Z,50
2017-10-11T12:56:18.620Z,45
2017-10-11T12:57:27.453Z,50
2017-10-11T12:58:36.294Z,55
2017-10-11T12:59:45.129Z,55
2017-10-11T13:00:53.964Z,50
2017-10-11T13:02:02.799Z,50
2017-10-11T13:03:11.637Z,45
2017-10-11T13:04:20.474Z,40
2017-10-11T13:05:29.310Z,35
2017-10-11T13:06:38.146Z,40
2017-10-11T13:07:46.976Z,45
2017-10-11T13:08:55.815Z,50
2017-10-11T13:10:04.649Z,55
2017-10-11T13:11:13.491Z,55
2017-10-11T13:12:22.328Z,50
2017-10-11T13:13:31.497Z,50
2017-10-11T13:14:40.334Z,50
2017-10-11T13:15:49.518Z,50
2017-10-11T13:16:58.351Z,50
2017-10-11T13:18:07.186Z,50
2017-10-11T13:19:16.020Z,45
2017-10-11T13:20:24.854Z,45
2017-10-11T13:21:33.693Z,45
2017-10-11T13:22:42.538Z,45
2017-10-11T13:23:51.368Z,45
2017-10-11T13:25:00.206Z,45
2017-10-11T13:26:09.042Z,45
2017-10-11T13:27:17.877Z,45
2017-10-11T13:28:26.715Z,45
2017-10-11T13:29:35.884Z,40
2017-10-11T13:30:44.722Z,40
2017-10-11T13:31:53.554Z,40
2017-10-11T13:33:02.392Z,40
2017-10-11T13:34:11.229Z,35
2017-10-11T13:35:20.067Z,35
2017-10-11T13:36:28.899Z,40
2017-10-11T13:37:37.737Z,35
2017-10-11T13:38:46.598Z,30
2017-10-11T13:39:55.411Z,25
2017-10-11T13:41:04.249Z,25
2017-10-11T13:42:13.414Z,25
2017-10-11T13:43:22.251Z,20
2017-10-11T13:44:31.095Z,20
2017-10-11T13:45:39.932Z,15
2017-10-11T13:46:48.764Z,15
2017-10-11T13:47:57.604Z,15
2017-10-11T13:49:06.441Z,20
2017-10-11T13:50:15.278Z,20
2017-10-11T13:51:24.114Z,20
2017-10-11T13:52:32.952Z,20
2017-10-11T13:53:41.786Z,25
2017-10-11T13:54:50.621Z,25
2017-10-11T13:55:59.459Z,20
2017-10-11T13:57:08.297Z,25
2017-10-11T13:58:17.129Z,25
2017-10-11T13:59:25.962Z,15
2017-10-11T14:00:34.802Z,15
2017-10-11T14:01:43.639Z,15
2017-10-11T14:02:52.475Z,15
2017-10-11T14:04:01.313Z,15
2017-10-11T14:05:10.149Z,10
2017-10-11T14:06:18.987Z,10
2017-10-11T14:07:27.824Z,10
2017-10-11T14:08:36.661Z,5
2017-10-11T14:09:45.490Z,10
2017-10-11T14:10:54.325Z,10
2017-10-11T14:12:03.162Z,10
2017-10-11T14:13:11.998Z,10
2017-10-11T14:14:20.834Z,10
2017-10-11T14:15:29.676Z,5
2017-10-11T14:16:38.511Z,10
2017-10-11T14:17:47.351Z,10
2017-10-11T14:18:56.189Z,10
2017-10-11T14:20:05.023Z,15
2017-10-11T14:21:13.853Z,15
2017-10-11T14:22:22.692Z,10
2017-10-11T14:23:31.525Z,10
2017-10-11T14:24:40.378Z,15
2017-10-11T14:25:49.207Z,20
2017-10-11T14:26:58.039Z,20
2017-10-11T14:28:06.874Z,15
2017-10-11T14:29:15.712Z,20
2017-10-11T14:30:24.548Z,15
2017-10-11T14:31:33.384Z,10
2017-10-11T14:32:42.218Z,15
2017-10-11T14:33:51.053Z,15
2017-10-11T14:34:59.888Z,10
2017-10-11T14:36:08.763Z,10
2017-10-11T14:37:17.589Z,15
2017-10-11T14:38:26.425Z,15
2017-10-11T14:39:35.261Z,15
2017-10-11T14:40:44.099Z,15
2017-10-11T14:41:52.938Z,10
2017-10-11T14:43:01.769Z,10
2017-10-11T14:44:10.605Z,10
2017-10-11T14:45:19.440Z,10
2017-10-11T14:46:28.276Z,15
2017-10-11T14:47:37.113Z,15
2017-10-11T14:48:45.947Z,15
2017-10-11T14:49:54.785Z,15
2017-10-11T14:51:03.620Z,10
2017-10-11T14:52:12.455Z,10
2017-10-11T14:53:21.290Z,10
2017-10-11T14:54:30.129Z,15
2017-10-11T14:55:38.964Z,10
2017-10-11T14:56:47.792Z,10
2017-10-11T14:57:56.630Z,10
2017-10-11T14:59:05.471Z,10
2017-10-11T15:00:14.308Z,10
2017-10-11T15:01:23.142Z,10
2017-10-11T15:02:31.983Z,10
2017-10-11T15:03:40.815Z,10
2017-10-11T15:04:49.652Z,10
2017-10-11T15:05:58.492Z,10
2017-10-11T15:07:07.326Z,10
2017-10-11T15:08:16.163Z,5
2017-10-11T15:09:24.999Z,5
2017-10-11T15:10:33.858Z,5
2017-10-11T15:11:43.008Z,5
2017-10-11T15:12:51.843Z,5
2017-10-11T15:14:00.681Z,5
2017-10-11T15:15:09.518Z,5
2017-10-11T15:16:18.362Z,5
2017-10-11T15:17:27.193Z,5
2017-10-11T15:18:36.028Z,5
2017-10-11T15:19:44.864Z,5
2017-10-11T15:20:53.703Z,5
2017-10-11T15:22:02.535Z,5
2017-10-11T15:23:11.378Z,5
2017-10-11T15:24:20.212Z,5
2017-10-11T15:25:29.050Z,5
2017-10-11T15:26:37.881Z,5
2017-10-11T15:27:46.726Z,5
2017-10-11T15:28:55.556Z,5
2017-10-11T15:30:04.392Z,5
2017-10-11T15:31:13.228Z,5
2017-10-11T15:32:22.064Z,5
2017-10-11T15:33:30.904Z,5
2017-10-11T15:34:40.072Z,5
2017-10-11T15:35:48.910Z,5
2017-10-11T15:36:57.751Z,5
2017-10-11T15:38:06.582Z,5
2017-10-11T15:39:15.418Z,5
2017-10-11T15:40:24.254Z,5
2017-10-11T15:41:33.110Z,5
2017-10-11T15:42:42.294Z,5
2017-10-11T15:43:51.128Z,5
2017-10-11T15:44:59.965Z,5
2017-10-11T15:46:08.797Z,5
2017-10-11T15:47:17.640Z,5
2017-10-11T15:48:26.474Z,5
2017-10-11T15:49:35.316Z,5
2017-10-11T15:50:44.489Z,0
2017-10-11T15:51:53.319Z,0
2017-10-11T15:53:02.157Z,0
2017-10-11T15:54:10.991Z,0
2017-10-11T15:55:19.835Z,0
2017-10-11T15:56:28.683Z,0
2017-10-11T15:57:37.833Z,0
2017-10-11T15:58:46.672Z,0
2017-10-11T15:59:55.512Z,0
2017-10-11T16:01:04.352Z,0
2017-10-11T16:02:13.183Z,0
2017-10-11T16:03:22.017Z,0
2017-10-11T16:04:30.849Z,0
2017-10-11T16:05:39.688Z,0
2017-10-11T16:06:48.857Z,0
2017-10-11T16:07:57.693Z,0
2017-10-11T16:09:06.528Z,0
2017-10-11T16:10:15.361Z,0
2017-10-11T16:11:24.205Z,0
2017-10-11T16:12:33.037Z,0
2017-10-11T16:13:41.877Z,0
2017-10-11T16:14:50.711Z,0
2017-10-11T16:15:59.550Z,0
2017-10-11T16:17:08.379Z,0
2017-10-11T16:18:17.223Z,0
2017-10-11T16:19:26.063Z,0
2017-10-11T16:20:34.901Z,0
2017-10-11T16:21:43.737Z,0
2017-10-11T16:22:52.579Z,0
2017-10-11T16:24:01.415Z,0
2017-10-11T16:25:10.248Z,0
2017-10-11T16:26:19.082Z,0
2017-10-11T16:27:27.919Z,0
2017-10-11T16:28:36.759Z,0
2017-10-11T16:29:45.599Z,0
2017-10-11T16:30:54.432Z,0
2017-10-11T16:32:03.267Z,0
2017-10-11T16:33:12.101Z,0
2017-10-11T16:34:20.939Z,0
2017-10-11T16:35:29.777Z,0
2017-10-11T16:36:38.615Z,0
2017-10-11T16:37:47.455Z,0
2017-10-11T16:38:56.305Z,0